createdAt,value
2023-04-25T04:44:53.255Z,100.00
2023-04-25T04:47:42.990Z,100.00
2023-04-25T04:50:36.740Z,100.00
2023-04-25T04:53:23.385Z,100.00
2023-04-25T04:56:24.411Z,100.00
2023-04-25T04:59:14.108Z,100.00
2023-04-25T05:02:13.480Z,100.00
2023-04-25T05:05:09.788Z,100.00
2023-04-25T05:07:50.832Z,100.00
2023-04-25T05:10:36.665Z,100.00
2023-04-25T05:13:11.231Z,100.00
2023-04-25T05:15:51.401Z,100.00
2023-04-25T05:18:49.615Z,100.00
2023-04-25T05:21:46.795Z,100.00
2023-04-25T05:24:45.157Z,100.00
2023-04-25T05:27:25.073Z,100.00
2023-04-25T05:30:15.647Z,100.00
2023-04-25T05:33:23.641Z,100.00
2023-04-25T05:36:46.203Z,100.00
2023-04-25T05:39:54.979Z,100.00
2023-04-25T05:45:54.796Z,99.50
2023-04-25T05:48:46.016Z,98.49
2023-04-25T05:51:32.854Z,97.23
2023-04-25T05:54:11.994Z,95.82
2023-04-25T05:56:42.293Z,94.59
2023-04-25T05:59:15.231Z,93.39
2023-04-25T06:01:43.044Z,92.40
2023-04-25T06:04:13.013Z,91.70
2023-04-25T06:06:42.360Z,90.63
2023-04-25T06:09:14.398Z,88.90
2023-04-25T06:11:43.053Z,85.73
2023-04-25T06:14:11.552Z,84.75
2023-04-25T06:16:42.099Z,83.83
2023-04-25T06:19:15.693Z,83.23
2023-04-25T06:21:44.576Z,83.00
2023-04-25T06:24:11.702Z,82.35
2023-04-25T06:26:41.186Z,81.87
2023-04-25T06:29:08.549Z,81.48
2023-04-25T06:31:35.762Z,80.68
2023-04-25T06:34:03.539Z,79.09
2023-04-25T06:36:31.468Z,77.59
2023-04-25T06:39:03.612Z,76.30
2023-04-25T06:41:31.817Z,74.78
2023-04-25T06:44:00.229Z,73.40
2023-04-25T06:46:33.684Z,72.42
2023-04-25T06:49:01.168Z,72.02
2023-04-25T06:51:30.888Z,71.21
2023-04-25T06:53:58.121Z,70.03
2023-04-25T06:56:31.996Z,68.90
2023-04-25T06:59:09.240Z,68.03
2023-04-25T07:01:38.914Z,66.73
2023-04-25T07:04:11.016Z,65.06
2023-04-25T07:06:50.962Z,63.93
2023-04-25T07:09:43.547Z,63.79
2023-04-25T07:12:16.568Z,63.14
2023-04-25T07:14:49.196Z,61.62
2023-04-25T07:17:21.427Z,60.96
2023-04-25T07:19:48.354Z,59.59
2023-04-25T07:22:17.279Z,58.05
2023-04-25T07:24:46.090Z,57.96
2023-04-25T07:27:13.699Z,57.49
2023-04-25T07:29:57.026Z,55.87
2023-04-25T07:32:24.347Z,56.09
2023-04-25T07:34:52.363Z,56.21
2023-04-25T07:37:21.595Z,55.85
2023-04-25T07:40:07.285Z,55.90
2023-04-25T07:42:34.431Z,55.72
2023-04-25T07:45:02.429Z,55.27
2023-04-25T07:47:30.350Z,55.07
2023-04-25T07:49:59.756Z,53.76
2023-04-25T07:52:26.864Z,52.93
2023-04-25T07:55:02.367Z,52.55
2023-04-25T07:58:00.567Z,51.75
2023-04-25T08:00:31.832Z,49.45
2023-04-25T08:03:37.245Z,49.07
2023-04-25T08:06:09.640Z,47.24
2023-04-25T08:08:53.332Z,46.97
2023-04-25T08:11:22.388Z,47.52
2023-04-25T08:13:51.136Z,47.63
2023-04-25T08:16:18.725Z,47.67
2023-04-25T08:18:47.811Z,47.80
2023-04-25T08:21:16.762Z,46.99
2023-04-25T08:23:45.424Z,45.97
2023-04-25T08:26:33.731Z,46.50
2023-04-25T08:29:01.876Z,45.88
2023-04-25T08:31:40.432Z,46.18
2023-04-25T08:34:13.510Z,45.58
2023-04-25T08:36:50.434Z,45.26
2023-04-25T08:39:24.063Z,44.34
2023-04-25T08:42:47.346Z,43.88
2023-04-25T08:45:19.520Z,43.00
2023-04-25T08:47:46.981Z,43.36
2023-04-25T08:50:14.810Z,44.23
2023-04-25T08:52:46.618Z,44.26
2023-04-25T08:55:15.344Z,43.91
2023-04-25T08:57:44.120Z,43.41
2023-04-25T09:00:29.042Z,43.62
2023-04-25T09:03:00.383Z,43.56
2023-04-25T09:05:31.331Z,42.94
2023-04-25T09:07:59.289Z,43.44
2023-04-25T09:10:26.947Z,43.36
2023-04-25T09:13:10.345Z,43.24
2023-04-25T09:15:59.069Z,43.31
2023-04-25T09:19:06.087Z,43.08
2023-04-25T09:21:33.363Z,43.13
2023-04-25T09:24:00.770Z,42.17
2023-04-25T09:26:27.906Z,40.25
2023-04-25T09:29:10.514Z,39.79
2023-04-25T09:31:58.665Z,40.15
2023-04-25T09:34:45.678Z,40.41
2023-04-25T09:37:30.635Z,39.82
2023-04-25T09:40:19.032Z,39.51
2023-04-25T09:42:52.910Z,39.08
2023-04-25T09:45:30.051Z,38.45
2023-04-25T09:47:59.243Z,38.31
2023-04-25T09:50:28.082Z,38.53
2023-04-25T09:53:33.557Z,38.14
2023-04-25T09:56:21.654Z,38.46
2023-04-25T09:58:51.061Z,38.88
2023-04-25T10:01:18.548Z,39.31
2023-04-25T10:04:25.778Z,37.15
2023-04-25T10:07:24.350Z,37.28
2023-04-25T10:10:07.204Z,36.66
2023-04-25T10:12:40.488Z,37.60
2023-04-25T10:15:16.139Z,37.32
2023-04-25T10:17:52.225Z,37.14
2023-04-25T10:20:19.519Z,37.37
2023-04-25T10:22:46.515Z,37.95
2023-04-25T10:25:13.527Z,35.99
2023-04-25T10:27:40.792Z,35.61
2023-04-25T10:30:13.672Z,36.71
2023-04-25T10:32:41.233Z,37.00
2023-04-25T10:35:16.533Z,37.17
2023-04-25T10:38:02.004Z,37.20
2023-04-25T10:40:29.167Z,37.20
2023-04-25T10:42:57.069Z,36.34
2023-04-25T10:45:31.679Z,34.96
2023-04-25T10:48:02.133Z,33.70
2023-04-25T10:50:38.674Z,33.09
2023-04-25T10:53:16.316Z,32.71
2023-04-25T10:55:55.142Z,32.47
2023-04-25T10:58:23.889Z,32.93
2023-04-25T11:03:22.824Z,32.65
2023-04-25T11:05:57.773Z,32.36
2023-04-25T11:08:35.667Z,31.86
2023-04-25T11:11:03.117Z,29.61
2023-04-25T11:13:33.096Z,28.28
2023-04-25T11:16:07.469Z,28.76
2023-04-25T11:18:42.998Z,28.94
2023-04-25T11:21:10.249Z,29.54
2023-04-25T11:23:38.107Z,29.42
2023-04-25T11:26:05.479Z,29.67
2023-04-25T11:28:32.534Z,29.22
2023-04-25T11:30:59.513Z,28.61
2023-04-25T11:33:26.982Z,29.75
2023-04-25T11:35:57.546Z,29.04
2023-04-25T11:38:27.177Z,29.50
2023-04-25T11:40:54.471Z,29.26
2023-04-25T11:43:22.335Z,27.12
2023-04-25T11:45:50.448Z,26.96
2023-04-25T11:48:18.496Z,26.64
2023-04-25T11:50:46.713Z,27.32
2023-04-25T11:53:14.071Z,29.59
2023-04-25T11:55:41.195Z,30.45
2023-04-25T11:58:09.695Z,30.87
2023-04-25T12:00:36.900Z,31.31
2023-04-25T12:03:04.484Z,31.89
2023-04-25T12:05:34.461Z,31.95
2023-04-25T12:08:14.615Z,32.68
2023-04-25T12:10:42.391Z,32.73
2023-04-25T12:13:26.056Z,33.23
2023-04-25T12:15:55.245Z,34.16
2023-04-25T12:18:23.976Z,33.26
2023-04-25T12:20:50.915Z,33.51
